Rechercher aéroport 
image banner adimage banner adimage banner ad
image banner ad

KACV - Arcata

Situé à Arcata/Eureka, United States

ICAO - ACV, IATA - ACV

Données fournies par Airmate  

Information générale

Coordonnées: N40°58'40" W124°6'30"
Élévation : 222 feet MSL.
Variation magnétique : 17° East
Voir autres Aéroports à California

Données opérationnelles

Special qualification required
Heure actuelle UTC:
Heure actuelle locale:
Météo
METAR: KACV 251453Z AUTO 00000KT 1 1/2SM R32/2400VP6000FT BR OVC002 12/12 A2998 RMK AO2 SLP157 T01170117 51004
TAF: KACV 251331Z 2514/2612 00000KT 1/2SM FG VV002 TEMPO 2514/2516 2SM BR FM251700 22004KT 4SM BR BKN008 FM252100 28008KT P6SM FEW005 FM260200 26005KT 5SM BR BKN003
Voir NOTAMs / SUP AIP / TFR affectant cet aéroport [VIEW]
Fréquences de communication: [VIEW]

Pistes:

Identifiant RWYQFULongueur (ft)Largeur (ft)SurfaceLDA (ft)
0130°4501150ASPH4501
19210°4501150ASPH4501
14153°6046150ASPH5601
32333°6046150ASPH5846

Coordonnées de l'aéroport

Adresse: Arcata/Eureka United States

Vue satellite de KACV